createdAt,value
2023-04-22T00:00:20.900Z,34.18
2023-04-22T00:02:50.264Z,34.33
2023-04-22T00:05:20.524Z,34.29
2023-04-22T00:07:48.826Z,34.09
2023-04-22T00:10:16.793Z,34.35
2023-04-22T00:12:44.767Z,34.20
2023-04-22T00:15:14.269Z,34.01
2023-04-22T00:17:42.846Z,34.04
2023-04-22T00:20:13.233Z,34.11
2023-04-22T00:22:41.434Z,34.47
2023-04-22T00:25:10.188Z,34.14
2023-04-22T00:27:38.067Z,34.36
2023-04-22T00:30:08.395Z,34.24
2023-04-22T00:32:38.223Z,34.13
2023-04-22T00:35:06.934Z,34.14
2023-04-22T00:37:35.083Z,34.29
2023-04-22T00:40:03.613Z,34.28
2023-04-22T00:42:31.574Z,34.57
2023-04-22T00:45:01.045Z,34.45
2023-04-22T00:47:29.131Z,34.32
2023-04-22T00:49:58.521Z,34.22
2023-04-22T00:52:26.521Z,34.26
2023-04-22T00:54:54.661Z,34.57
2023-04-22T00:57:22.659Z,34.44
2023-04-22T00:59:50.783Z,34.32
2023-04-22T01:02:20.255Z,34.45
2023-04-22T01:04:48.376Z,34.24
2023-04-22T01:07:17.829Z,34.42
2023-04-22T01:09:45.808Z,34.15
2023-04-22T01:12:13.688Z,34.29
2023-04-22T01:14:41.737Z,34.63
2023-04-22T01:17:10.277Z,34.51
2023-04-22T01:19:38.643Z,34.40
2023-04-22T01:22:07.738Z,34.13
2023-04-22T01:24:37.154Z,34.14
2023-04-22T01:27:05.199Z,34.39
2023-04-22T01:29:33.319Z,34.23
2023-04-22T01:32:01.395Z,34.27
2023-04-22T01:34:29.411Z,34.51
2023-04-22T01:36:57.446Z,34.50
2023-04-22T01:39:25.510Z,34.56
2023-04-22T01:41:55.718Z,34.42
2023-04-22T01:44:23.715Z,34.39
2023-04-22T01:46:51.752Z,34.50
2023-04-22T01:49:19.769Z,34.59
2023-04-22T01:51:47.653Z,34.58
2023-04-22T01:54:16.131Z,34.48
2023-04-22T01:56:54.055Z,34.59
2023-04-22T01:59:23.531Z,34.41
2023-04-22T02:01:51.585Z,34.78
2023-04-22T02:04:19.605Z,34.48
2023-04-22T02:06:47.569Z,34.62
2023-04-22T02:09:15.713Z,34.55
2023-04-22T02:11:43.837Z,34.46
2023-04-22T02:14:11.780Z,34.62
2023-04-22T02:16:41.885Z,34.63
2023-04-22T02:19:10.051Z,34.60
2023-04-22T02:21:38.110Z,34.75
2023-04-22T02:24:06.614Z,34.58
2023-04-22T02:26:34.638Z,34.67
2023-04-22T02:29:02.934Z,34.37
2023-04-22T02:31:31.357Z,34.61
2023-04-22T02:34:00.704Z,34.77
2023-04-22T02:36:28.917Z,34.41
2023-04-22T02:38:56.988Z,34.70
2023-04-22T02:41:25.160Z,34.73
2023-04-22T02:43:53.169Z,34.78
2023-04-22T02:46:21.230Z,34.56
2023-04-22T02:48:49.810Z,34.63
2023-04-22T02:51:21.571Z,34.85
2023-04-22T02:53:49.562Z,34.73
2023-04-22T02:56:17.501Z,34.63
2023-04-22T02:58:45.446Z,34.83
2023-04-22T03:01:13.563Z,34.89
2023-04-22T03:03:41.915Z,34.89
2023-04-22T03:06:10.071Z,34.71
2023-04-22T03:08:39.539Z,34.59
2023-04-22T03:11:07.608Z,34.96
2023-04-22T03:13:35.585Z,35.00
2023-04-22T03:16:03.583Z,34.73
2023-04-22T03:18:31.689Z,34.65
2023-04-22T03:21:00.892Z,34.92
2023-04-22T03:23:28.861Z,34.67
2023-04-22T03:25:58.231Z,34.71
2023-04-22T03:28:26.114Z,34.77
2023-04-22T03:30:54.127Z,34.98
2023-04-22T03:33:22.581Z,34.74
2023-04-22T03:35:51.111Z,34.80
2023-04-22T03:38:19.090Z,34.74
2023-04-22T03:40:47.039Z,35.04
2023-04-22T03:43:16.398Z,34.68
2023-04-22T03:45:45.832Z,34.94
2023-04-22T03:48:13.896Z,34.80
2023-04-22T03:50:41.931Z,34.94
2023-04-22T03:53:10.041Z,35.12
2023-04-22T03:55:38.087Z,34.83
2023-04-22T03:58:05.977Z,35.07
2023-04-22T04:00:35.478Z,34.69
2023-04-22T04:03:03.543Z,34.67
2023-04-22T04:05:31.824Z,34.84
2023-04-22T04:07:59.854Z,34.67
2023-04-22T04:10:28.050Z,34.64
2023-04-22T04:12:56.393Z,34.67
2023-04-22T04:15:24.396Z,34.64
2023-04-22T04:17:53.817Z,34.92
2023-04-22T04:20:21.960Z,34.89
2023-04-22T04:22:50.052Z,35.00
2023-04-22T04:25:18.446Z,34.87
2023-04-22T04:27:46.547Z,34.62
2023-04-22T04:30:16.352Z,34.93
2023-04-22T04:32:45.711Z,34.81
2023-04-22T04:35:15.434Z,34.62
2023-04-22T04:37:44.257Z,34.70
2023-04-22T04:40:13.901Z,34.96
2023-04-22T04:42:42.475Z,34.74
2023-04-22T04:45:11.059Z,34.80
2023-04-22T04:47:39.173Z,34.62
2023-04-22T04:50:08.282Z,34.72
2023-04-22T04:52:37.765Z,34.86
2023-04-22T04:55:06.409Z,34.93
2023-04-22T04:57:35.294Z,34.74
2023-04-22T05:00:05.104Z,34.95
2023-04-22T05:02:33.121Z,34.69
2023-04-22T05:05:09.219Z,34.83
2023-04-22T05:07:38.589Z,35.06
2023-04-22T05:10:07.637Z,34.69
2023-04-22T05:12:35.777Z,34.78
2023-04-22T05:15:03.848Z,34.67
2023-04-22T05:17:31.843Z,34.60
2023-04-22T05:19:59.949Z,34.82
2023-04-22T05:22:28.078Z,34.66
2023-04-22T05:24:57.428Z,34.81
2023-04-22T05:27:25.473Z,34.84
2023-04-22T05:29:53.407Z,34.95
2023-04-22T05:32:21.715Z,34.68
2023-04-22T05:34:51.296Z,35.21
2023-04-22T05:37:19.368Z,35.01
2023-04-22T05:39:47.435Z,35.07
2023-04-22T05:42:16.849Z,35.20
2023-04-22T05:44:44.839Z,34.98
2023-04-22T05:47:12.801Z,35.10
2023-04-22T05:49:41.025Z,35.19
2023-04-22T05:52:09.328Z,35.02
2023-04-22T05:54:37.451Z,35.40
2023-04-22T05:57:05.469Z,35.05
2023-04-22T05:59:34.983Z,35.05
2023-04-22T06:02:03.211Z,35.06
2023-04-22T06:04:33.054Z,35.19
2023-04-22T06:07:02.865Z,35.38
2023-04-22T06:09:30.810Z,35.01
2023-04-22T06:11:58.878Z,35.25
2023-04-22T06:14:26.950Z,35.32
2023-04-22T06:16:57.961Z,35.21
2023-04-22T06:19:25.949Z,35.29
2023-04-22T06:21:53.913Z,35.32
2023-04-22T06:24:22.396Z,35.10
2023-04-22T06:26:55.701Z,34.95
2023-04-22T06:29:25.992Z,35.06
2023-04-22T06:31:57.726Z,35.28
2023-04-22T06:34:34.529Z,35.10
2023-04-22T06:37:02.466Z,35.35
2023-04-22T06:39:36.339Z,35.44
2023-04-22T06:42:06.944Z,35.17
2023-04-22T06:44:39.127Z,35.41
2023-04-22T06:47:09.766Z,35.38
2023-04-22T06:49:47.866Z,35.07
2023-04-22T06:52:24.323Z,35.07
2023-04-22T06:55:00.117Z,35.28
2023-04-22T06:57:29.536Z,35.47
2023-04-22T06:59:57.508Z,35.45
2023-04-22T07:02:25.689Z,35.16
2023-04-22T07:04:55.179Z,35.53
2023-04-22T07:07:23.297Z,35.12
2023-04-22T07:09:51.257Z,35.05
2023-04-22T07:12:19.328Z,35.19
2023-04-22T07:14:47.524Z,35.00
2023-04-22T07:17:15.693Z,35.31
2023-04-22T07:19:43.612Z,35.11
2023-04-22T07:22:13.022Z,35.30
2023-04-22T07:24:41.093Z,35.01
2023-04-22T07:27:08.973Z,34.86
2023-04-22T07:29:37.132Z,35.24
2023-04-22T07:32:05.372Z,35.04
2023-04-22T07:34:33.437Z,35.10
2023-04-22T07:37:01.620Z,35.22
2023-04-22T07:39:31.050Z,35.14
2023-04-22T07:41:59.090Z,35.11
2023-04-22T07:44:27.021Z,35.16
2023-04-22T07:46:55.565Z,35.08
2023-04-22T07:49:24.196Z,35.31
2023-04-22T07:51:52.346Z,35.14
2023-04-22T07:54:20.484Z,35.06
2023-04-22T07:56:49.944Z,35.25
2023-04-22T07:59:17.990Z,35.20
2023-04-22T08:01:47.189Z,35.06
2023-04-22T08:04:15.573Z,35.59
2023-04-22T08:06:43.942Z,35.37
2023-04-22T08:09:12.028Z,35.24
2023-04-22T08:11:40.046Z,35.24
2023-04-22T08:14:09.426Z,35.33
2023-04-22T08:16:37.486Z,35.44
2023-04-22T08:19:05.550Z,35.36
2023-04-22T08:21:33.484Z,35.24
2023-04-22T08:24:01.638Z,35.37
2023-04-22T08:26:29.565Z,35.38
2023-04-22T08:28:57.570Z,35.07
2023-04-22T08:31:27.103Z,35.11
2023-04-22T08:33:55.258Z,35.24
2023-04-22T08:36:25.955Z,35.07
2023-04-22T08:38:54.706Z,35.46
2023-04-22T08:41:24.539Z,35.51
2023-04-22T08:43:52.660Z,35.43
2023-04-22T08:46:21.133Z,35.25
2023-04-22T08:48:50.595Z,35.34
2023-04-22T08:51:18.867Z,35.42
2023-04-22T08:53:46.771Z,35.53
2023-04-22T08:56:14.854Z,35.38
2023-04-22T08:58:43.166Z,35.27
2023-04-22T09:01:11.164Z,35.33
2023-04-22T09:03:40.456Z,35.51
2023-04-22T09:06:10.004Z,35.62
2023-04-22T09:08:37.988Z,35.70
2023-04-22T09:11:06.371Z,35.72
2023-04-22T09:13:34.647Z,35.39
2023-04-22T09:16:02.818Z,35.53
2023-04-22T09:18:30.804Z,35.72
2023-04-22T09:20:58.833Z,35.38
2023-04-22T09:23:28.194Z,35.56
2023-04-22T09:25:58.217Z,37.85
2023-04-22T09:28:26.228Z,37.43
2023-04-22T09:30:54.262Z,36.98
2023-04-22T09:33:23.838Z,36.75
2023-04-22T09:35:51.760Z,36.50
2023-04-22T09:38:19.755Z,36.44
2023-04-22T09:40:49.258Z,36.55
2023-04-22T09:43:19.568Z,36.23
2023-04-22T09:45:47.604Z,36.10
2023-04-22T09:48:16.603Z,36.41
2023-04-22T09:50:46.482Z,36.39
2023-04-22T09:53:16.053Z,36.18
2023-04-22T09:55:45.665Z,36.39
2023-04-22T09:58:16.519Z,36.08
2023-04-22T10:00:45.720Z,36.18
2023-04-22T10:03:14.023Z,36.54
2023-04-22T10:05:42.638Z,36.51
2023-04-22T10:08:11.265Z,36.22
2023-04-22T10:10:39.960Z,36.52
2023-04-22T10:13:09.554Z,36.46
2023-04-22T10:15:40.688Z,36.52
2023-04-22T10:18:09.977Z,36.19
2023-04-22T10:20:38.480Z,36.09
2023-04-22T10:23:06.845Z,36.37
2023-04-22T10:25:34.806Z,36.28
2023-04-22T10:28:03.820Z,36.01
2023-04-22T10:30:32.460Z,35.91
2023-04-22T10:33:35.235Z,36.19
2023-04-22T10:36:18.449Z,36.02
2023-04-22T10:39:15.865Z,36.28
2023-04-22T10:41:46.918Z,36.26
2023-04-22T10:44:15.134Z,36.29
2023-04-22T10:47:01.782Z,36.24
2023-04-22T10:49:35.758Z,35.84
2023-04-22T10:52:08.829Z,35.83
2023-04-22T10:54:59.578Z,36.23
2023-04-22T10:57:38.299Z,35.83
2023-04-22T11:00:21.811Z,35.89
2023-04-22T11:02:53.319Z,36.03
2023-04-22T11:05:24.646Z,35.88
2023-04-22T11:07:56.219Z,36.12
2023-04-22T11:10:43.013Z,35.88
2023-04-22T11:13:13.943Z,35.72
2023-04-22T11:15:42.686Z,35.89
2023-04-22T11:18:19.289Z,35.80
2023-04-22T11:20:48.550Z,35.88
2023-04-22T11:23:21.378Z,35.73
2023-04-22T11:25:49.426Z,35.82
2023-04-22T11:28:18.954Z,35.64
2023-04-22T11:30:47.791Z,35.37
2023-04-22T11:33:16.138Z,35.46
2023-04-22T11:35:44.336Z,35.18
2023-04-22T11:38:12.374Z,35.42
2023-04-22T11:40:46.202Z,35.13
2023-04-22T11:43:15.192Z,35.29
2023-04-22T11:45:43.698Z,34.88
2023-04-22T11:48:12.327Z,34.79
2023-04-22T11:50:42.257Z,34.79
2023-04-22T11:53:15.112Z,34.97
2023-04-22T11:55:45.124Z,34.78
2023-04-22T11:58:14.667Z,35.09
2023-04-22T12:00:44.045Z,34.97
2023-04-22T12:03:15.608Z,34.76
2023-04-22T12:05:44.576Z,34.64
2023-04-22T12:08:13.605Z,34.52
2023-04-22T12:10:46.341Z,34.37
2023-04-22T12:13:21.154Z,34.39
2023-04-22T12:15:49.213Z,34.62
2023-04-22T12:18:17.141Z,34.20
2023-04-22T12:20:45.109Z,34.51
2023-04-22T12:23:14.659Z,34.03
2023-04-22T12:25:43.141Z,34.36
2023-04-22T12:28:13.537Z,34.06
2023-04-22T12:30:41.528Z,33.84
2023-04-22T12:33:10.252Z,33.76
2023-04-22T12:35:38.290Z,33.92
2023-04-22T12:38:06.296Z,33.78
2023-04-22T12:40:34.797Z,33.64
2023-04-22T12:43:06.163Z,33.84
2023-04-22T12:45:35.527Z,33.56
2023-04-22T12:48:03.620Z,33.48
2023-04-22T12:50:31.587Z,33.72
2023-04-22T12:52:59.638Z,33.51
2023-04-22T12:55:27.718Z,33.49
2023-04-22T12:57:55.754Z,33.47
2023-04-22T13:00:24.404Z,33.48
2023-04-22T13:02:53.893Z,33.32
2023-04-22T13:05:22.147Z,33.02
2023-04-22T13:07:56.450Z,32.98
2023-04-22T13:10:28.343Z,32.96
2023-04-22T13:13:06.052Z,32.79
2023-04-22T13:15:43.713Z,32.86
2023-04-22T13:18:13.156Z,32.79
2023-04-22T13:20:42.429Z,32.79
2023-04-22T13:23:10.731Z,32.60
2023-04-22T13:25:38.686Z,32.87
2023-04-22T13:28:07.001Z,32.60
2023-04-22T13:30:35.009Z,32.41
2023-04-22T13:33:03.405Z,32.66
2023-04-22T13:35:33.445Z,32.38
2023-04-22T13:38:01.440Z,32.50
2023-04-22T13:40:29.398Z,32.56
2023-04-22T13:42:57.428Z,32.18
2023-04-22T13:45:25.771Z,32.10
2023-04-22T13:47:54.484Z,31.94
2023-04-22T13:50:22.711Z,32.08
2023-04-22T13:53:12.140Z,32.23
2023-04-22T13:55:40.234Z,31.74
2023-04-22T13:58:08.404Z,31.96
2023-04-22T14:00:36.571Z,31.67
2023-04-22T14:03:04.575Z,31.76
2023-04-22T14:05:32.694Z,31.88
2023-04-22T14:08:02.146Z,31.69
2023-04-22T14:10:30.149Z,31.54
2023-04-22T14:12:58.436Z,31.73
2023-04-22T14:15:26.446Z,31.75
2023-04-22T14:17:54.835Z,31.82
2023-04-22T14:20:25.187Z,31.50
2023-04-22T14:22:53.223Z,31.33
2023-04-22T14:25:22.595Z,31.55
2023-04-22T14:27:50.574Z,31.33
2023-04-22T14:30:18.642Z,31.32
2023-04-22T14:32:46.654Z,31.46
2023-04-22T14:35:14.672Z,31.39
2023-04-22T14:37:45.133Z,31.21
2023-04-22T14:40:13.472Z,31.22
2023-04-22T14:42:42.860Z,31.10
2023-04-22T14:45:11.792Z,30.75
2023-04-22T14:47:39.783Z,30.67
2023-04-22T14:50:08.620Z,30.60
2023-04-22T14:52:36.679Z,30.50
2023-04-22T14:55:15.377Z,30.28
2023-04-22T14:57:50.977Z,30.33
2023-04-22T15:00:19.319Z,30.15
2023-04-22T15:02:47.592Z,30.27
2023-04-22T15:05:15.731Z,29.90
2023-04-22T15:07:43.808Z,29.77
2023-04-22T15:10:12.184Z,29.96
2023-04-22T15:12:40.347Z,29.67
2023-04-22T15:15:13.313Z,29.63
2023-04-22T15:17:41.515Z,29.59
2023-04-22T15:20:10.131Z,29.70
2023-04-22T15:22:40.885Z,29.87
2023-04-22T15:25:09.930Z,29.76
2023-04-22T15:27:38.292Z,29.43
2023-04-22T15:30:07.335Z,29.54
2023-04-22T15:32:39.077Z,29.70
2023-04-22T15:35:08.899Z,30.04
2023-04-22T15:37:37.133Z,29.98
2023-04-22T15:40:07.132Z,29.93
2023-04-22T15:42:35.107Z,29.89
2023-04-22T15:45:03.990Z,29.81
2023-04-22T15:47:32.415Z,29.87
2023-04-22T15:50:06.594Z,29.85
2023-04-22T15:52:34.813Z,29.94
2023-04-22T15:55:02.899Z,29.79
2023-04-22T15:57:34.757Z,29.97
2023-04-22T16:00:11.970Z,29.85
2023-04-22T16:02:41.718Z,29.81
2023-04-22T16:05:11.579Z,30.00
2023-04-22T16:07:40.256Z,30.03
2023-04-22T16:10:09.731Z,29.93
2023-04-22T16:12:37.640Z,30.16
2023-04-22T16:15:06.897Z,29.88
2023-04-22T16:17:34.894Z,30.10
2023-04-22T16:20:03.348Z,29.85
2023-04-22T16:22:32.711Z,29.95
2023-04-22T16:25:00.741Z,29.95
2023-04-22T16:27:28.800Z,30.02
2023-04-22T16:29:56.835Z,30.25
2023-04-22T16:32:24.856Z,30.18
2023-04-22T16:34:52.894Z,30.07
2023-04-22T16:37:20.839Z,30.11
2023-04-22T16:39:50.751Z,29.89
2023-04-22T16:42:18.791Z,30.25
2023-04-22T16:44:46.843Z,30.41
2023-04-22T16:47:14.817Z,30.06
2023-04-22T16:49:43.217Z,30.33
2023-04-22T16:52:11.473Z,30.20
2023-04-22T16:54:40.769Z,29.91
2023-04-22T16:57:10.610Z,30.36
2023-04-22T16:59:38.817Z,30.06
2023-04-22T17:02:07.071Z,30.02
2023-04-22T17:04:35.244Z,30.02
2023-04-22T17:07:03.282Z,30.13
2023-04-22T17:09:32.978Z,30.06
2023-04-22T17:12:01.609Z,29.98
2023-04-22T17:14:31.165Z,30.00
2023-04-22T17:16:59.202Z,30.11
2023-04-22T17:19:27.987Z,30.34
2023-04-22T17:21:55.992Z,30.02
2023-04-22T17:24:24.990Z,29.90
2023-04-22T17:26:53.096Z,29.87
2023-04-22T17:29:21.851Z,30.13
2023-04-22T17:31:51.583Z,29.76
2023-04-22T17:34:19.660Z,29.81
2023-04-22T17:36:47.784Z,29.71
2023-04-22T17:39:15.884Z,29.97
2023-04-22T17:41:44.225Z,29.70
2023-04-22T17:44:12.367Z,29.89
2023-04-22T17:46:41.660Z,30.08
2023-04-22T17:49:11.230Z,29.82
2023-04-22T17:51:39.221Z,30.10
2023-04-22T17:54:07.671Z,30.07
2023-04-22T17:56:35.749Z,30.22
2023-04-22T17:59:03.768Z,30.25
2023-04-22T18:01:31.831Z,30.22
2023-04-22T18:04:00.146Z,30.25
2023-04-22T18:06:29.898Z,29.93
2023-04-22T18:08:57.957Z,30.11
2023-04-22T18:11:27.962Z,29.83
2023-04-22T18:13:56.120Z,30.08
2023-04-22T18:16:24.186Z,30.26
2023-04-22T18:18:52.214Z,30.25
2023-04-22T18:21:20.475Z,30.00
2023-04-22T18:23:49.822Z,30.14
2023-04-22T18:26:17.861Z,29.85
2023-04-22T18:28:45.858Z,30.26
2023-04-22T18:31:13.844Z,29.93
2023-04-22T18:33:41.936Z,30.20
2023-04-22T18:36:10.286Z,29.90
2023-04-22T18:38:39.574Z,30.16
2023-04-22T18:41:10.933Z,30.10
2023-04-22T18:43:38.929Z,30.06
2023-04-22T18:46:07.297Z,29.90
2023-04-22T18:48:35.361Z,30.00
2023-04-22T18:51:03.455Z,30.22
2023-04-22T18:53:31.499Z,30.32
2023-04-22T18:55:59.451Z,30.24
2023-04-22T18:58:28.859Z,30.27
2023-04-22T19:00:57.145Z,30.21
2023-04-22T19:03:25.467Z,30.16
2023-04-22T19:05:53.618Z,30.13
2023-04-22T19:08:21.665Z,30.41
2023-04-22T19:10:50.800Z,30.38
2023-04-22T19:13:29.336Z,30.68
2023-04-22T19:15:59.973Z,30.48
2023-04-22T19:18:28.137Z,30.40
2023-04-22T19:20:56.328Z,30.48
2023-04-22T19:23:24.326Z,30.40
2023-04-22T19:25:53.258Z,30.60
2023-04-22T19:28:21.315Z,30.37
2023-04-22T19:30:49.445Z,30.75
2023-04-22T19:33:18.865Z,30.83
2023-04-22T19:35:46.939Z,30.76
2023-04-22T19:38:19.067Z,30.53
2023-04-22T19:40:47.406Z,30.47
2023-04-22T19:43:17.159Z,30.51
2023-04-22T19:45:45.547Z,30.84
2023-04-22T19:48:14.158Z,30.53
2023-04-22T19:50:44.267Z,30.58
2023-04-22T19:53:12.412Z,30.82
2023-04-22T19:55:40.868Z,30.67
2023-04-22T19:58:09.395Z,30.72
2023-04-22T20:00:37.696Z,30.89
2023-04-22T20:03:07.001Z,30.78
2023-04-22T20:05:35.892Z,30.81
2023-04-22T20:08:05.363Z,31.18
2023-04-22T20:10:33.383Z,30.89
2023-04-22T20:13:03.577Z,31.07
2023-04-22T20:15:32.526Z,30.82
2023-04-22T20:18:00.821Z,31.09
2023-04-22T20:20:29.493Z,31.15
2023-04-22T20:22:57.502Z,31.05
2023-04-22T20:25:28.810Z,31.13
2023-04-22T20:27:56.859Z,30.91
2023-04-22T20:30:25.053Z,30.93
2023-04-22T20:32:53.227Z,31.26
2023-04-22T20:35:21.827Z,31.12
2023-04-22T20:37:50.948Z,31.21
2023-04-22T20:40:19.134Z,31.20
2023-04-22T20:42:48.532Z,31.34
2023-04-22T20:45:17.992Z,30.99
2023-04-22T20:47:46.263Z,30.95
2023-04-22T20:50:14.816Z,30.98
2023-04-22T20:52:43.420Z,31.22
2023-04-22T20:55:14.646Z,31.08
2023-04-22T20:57:42.634Z,31.43
2023-04-22T21:00:13.109Z,31.12
2023-04-22T21:02:41.477Z,31.16
2023-04-22T21:05:11.262Z,31.09
2023-04-22T21:07:39.470Z,31.11
2023-04-22T21:10:08.861Z,31.43
2023-04-22T21:12:38.245Z,31.22
2023-04-22T21:15:07.642Z,31.51
2023-04-22T21:17:37.134Z,31.51
2023-04-22T21:20:06.477Z,31.21
2023-04-22T21:22:34.597Z,31.45
2023-04-22T21:25:02.743Z,31.23
2023-04-22T21:27:31.253Z,31.45
2023-04-22T21:29:59.365Z,31.51
2023-04-22T21:32:27.669Z,31.34
2023-04-22T21:34:57.900Z,31.68
2023-04-22T21:37:26.078Z,31.75
2023-04-22T21:39:54.049Z,31.64
2023-04-22T21:42:22.068Z,31.71
2023-04-22T21:44:50.040Z,31.63
2023-04-22T21:47:18.051Z,31.48
2023-04-22T21:49:47.129Z,31.47
2023-04-22T21:52:16.501Z,31.55
2023-04-22T21:54:44.462Z,31.75
2023-04-22T21:57:12.398Z,31.58
2023-04-22T21:59:40.467Z,31.80
2023-04-22T22:02:08.561Z,31.92
2023-04-22T22:04:36.847Z,31.94
2023-04-22T22:07:04.995Z,31.58
2023-04-22T22:09:34.441Z,31.98
2023-04-22T22:12:02.990Z,31.57
2023-04-22T22:14:31.051Z,31.69
2023-04-22T22:16:59.149Z,31.88
2023-04-22T22:19:28.477Z,31.38
2023-04-22T22:21:56.454Z,31.82
2023-04-22T22:24:25.066Z,31.54
2023-04-22T22:26:54.518Z,31.78
2023-04-22T22:29:22.520Z,31.60
2023-04-22T22:31:50.562Z,31.74
2023-04-22T22:34:18.636Z,31.92
2023-04-22T22:36:46.635Z,32.15
2023-04-22T22:39:16.263Z,32.22
2023-04-22T22:41:44.312Z,31.96
2023-04-22T22:44:13.634Z,32.32
2023-04-22T22:46:41.693Z,31.93
2023-04-22T22:49:09.804Z,32.33
2023-04-22T22:51:39.957Z,32.45
2023-04-22T22:54:10.960Z,32.11
2023-04-22T22:56:48.425Z,32.17
2023-04-22T22:59:21.155Z,32.29
2023-04-22T23:01:50.551Z,32.10
2023-04-22T23:04:18.792Z,32.30
2023-04-22T23:06:47.211Z,32.30
2023-04-22T23:09:18.964Z,32.30
2023-04-22T23:11:48.441Z,32.32
2023-04-22T23:14:17.954Z,32.28
2023-04-22T23:16:46.150Z,32.72
2023-04-22T23:19:14.481Z,32.45
2023-04-22T23:21:42.618Z,32.32
2023-04-22T23:24:11.124Z,32.60
2023-04-22T23:26:39.534Z,32.28
2023-04-22T23:29:07.624Z,32.40
2023-04-22T23:31:37.438Z,32.70
2023-04-22T23:34:06.225Z,32.34
2023-04-22T23:36:37.247Z,32.47
2023-04-22T23:39:05.908Z,32.42
2023-04-22T23:41:34.139Z,32.40
2023-04-22T23:44:02.258Z,32.34
2023-04-22T23:46:30.390Z,32.45
2023-04-22T23:49:01.470Z,32.47
2023-04-22T23:51:29.905Z,32.53
2023-04-22T23:53:57.924Z,32.78
2023-04-22T23:56:26.773Z,32.51
2023-04-22T23:58:55.498Z,32.79
